sensor_id;sensor_type;location;lat;lon;timestamp;P1;durP1;ratioP1;P2;durP2;ratioP2
62258;SDS011;48241;48.824;10.102;2023-05-19T00:01:06;5.50;;;2.80;;
62258;SDS011;48241;48.824;10.102;2023-05-19T00:03:33;7.55;;;2.97;;
62258;SDS011;48241;48.824;10.102;2023-05-19T00:06:01;5.35;;;2.75;;
62258;SDS011;48241;48.824;10.102;2023-05-19T00:08:31;7.03;;;3.17;;
62258;SDS011;48241;48.824;10.102;2023-05-19T00:10:58;6.18;;;3.13;;
62258;SDS011;48241;48.824;10.102;2023-05-19T00:13:24;7.90;;;2.83;;
62258;SDS011;48241;48.824;10.102;2023-05-19T00:15:49;6.43;;;3.03;;
62258;SDS011;48241;48.824;10.102;2023-05-19T00:18:15;7.63;;;3.50;;
62258;SDS011;48241;48.824;10.102;2023-05-19T00:20:41;6.38;;;3.05;;
62258;SDS011;48241;48.824;10.102;2023-05-19T00:23:07;7.88;;;3.00;;
62258;SDS011;48241;48.824;10.102;2023-05-19T00:25:34;8.30;;;2.92;;
62258;SDS011;48241;48.824;10.102;2023-05-19T00:27:59;6.60;;;3.00;;
62258;SDS011;48241;48.824;10.102;2023-05-19T00:30:26;5.65;;;2.90;;
62258;SDS011;48241;48.824;10.102;2023-05-19T00:32:51;6.13;;;3.10;;
62258;SDS011;48241;48.824;10.102;2023-05-19T00:35:17;4.45;;;2.78;;
62258;SDS011;48241;48.824;10.102;2023-05-19T00:37:44;5.35;;;2.95;;
62258;SDS011;48241;48.824;10.102;2023-05-19T00:40:09;5.65;;;2.80;;
62258;SDS011;48241;48.824;10.102;2023-05-19T00:42:35;6.30;;;3.13;;
62258;SDS011;48241;48.824;10.102;2023-05-19T00:45:01;4.82;;;2.88;;
62258;SDS011;48241;48.824;10.102;2023-05-19T00:47:26;6.13;;;3.00;;
62258;SDS011;48241;48.824;10.102;2023-05-19T00:49:52;7.00;;;3.25;;
62258;SDS011;48241;48.824;10.102;2023-05-19T00:52:17;6.15;;;2.80;;
62258;SDS011;48241;48.824;10.102;2023-05-19T00:54:43;5.50;;;3.00;;
62258;SDS011;48241;48.824;10.102;2023-05-19T00:57:10;6.00;;;3.10;;
62258;SDS011;48241;48.824;10.102;2023-05-19T00:59:37;5.45;;;2.95;;
62258;SDS011;48241;48.824;10.102;2023-05-19T01:02:03;8.07;;;2.40;;
62258;SDS011;48241;48.824;10.102;2023-05-19T01:04:29;6.90;;;3.08;;
62258;SDS011;48241;48.824;10.102;2023-05-19T01:06:58;5.80;;;2.90;;
62258;SDS011;48241;48.824;10.102;2023-05-19T01:09:24;9.23;;;3.40;;
62258;SDS011;48241;48.824;10.102;2023-05-19T01:11:50;7.65;;;2.97;;
62258;SDS011;48241;48.824;10.102;2023-05-19T01:14:16;7.03;;;2.88;;
62258;SDS011;48241;48.824;10.102;2023-05-19T01:16:46;5.65;;;2.90;;
62258;SDS011;48241;48.824;10.102;2023-05-19T01:19:30;8.32;;;2.97;;
62258;SDS011;48241;48.824;10.102;2023-05-19T01:28:04;7.28;;;2.90;;
62258;SDS011;48241;48.824;10.102;2023-05-19T01:30:46;4.43;;;2.87;;
62258;SDS011;48241;48.824;10.102;2023-05-19T01:33:15;6.03;;;3.00;;
62258;SDS011;48241;48.824;10.102;2023-05-19T01:35:42;6.45;;;3.35;;
62258;SDS011;48241;48.824;10.102;2023-05-19T01:38:10;7.40;;;3.08;;
62258;SDS011;48241;48.824;10.102;2023-05-19T01:40:37;7.60;;;2.85;;
62258;SDS011;48241;48.824;10.102;2023-05-19T01:43:04;5.65;;;3.08;;
62258;SDS011;48241;48.824;10.102;2023-05-19T01:45:31;4.78;;;2.50;;
62258;SDS011;48241;48.824;10.102;2023-05-19T01:47:59;9.70;;;3.25;;
62258;SDS011;48241;48.824;10.102;2023-05-19T01:50:27;5.20;;;2.92;;
62258;SDS011;48241;48.824;10.102;2023-05-19T01:52:53;7.03;;;3.50;;
62258;SDS011;48241;48.824;10.102;2023-05-19T01:55:20;6.70;;;3.25;;
62258;SDS011;48241;48.824;10.102;2023-05-19T01:58:08;6.95;;;3.33;;
62258;SDS011;48241;48.824;10.102;2023-05-19T02:05:54;7.53;;;2.85;;
62258;SDS011;48241;48.824;10.102;2023-05-19T02:08:42;7.63;;;3.13;;
62258;SDS011;48241;48.824;10.102;2023-05-19T02:13:47;5.65;;;3.10;;
62258;SDS011;48241;48.824;10.102;2023-05-19T02:16:16;10.07;;;3.03;;
62258;SDS011;48241;48.824;10.102;2023-05-19T02:18:44;6.60;;;2.97;;
62258;SDS011;48241;48.824;10.102;2023-05-19T02:21:12;9.55;;;3.13;;
62258;SDS011;48241;48.824;10.102;2023-05-19T02:23:40;9.07;;;3.13;;
62258;SDS011;48241;48.824;10.102;2023-05-19T02:26:06;5.40;;;3.25;;
62258;SDS011;48241;48.824;10.102;2023-05-19T02:28:33;7.65;;;3.20;;
62258;SDS011;48241;48.824;10.102;2023-05-19T02:30:59;7.50;;;3.28;;
62258;SDS011;48241;48.824;10.102;2023-05-19T02:33:25;7.07;;;3.28;;
62258;SDS011;48241;48.824;10.102;2023-05-19T02:35:51;7.18;;;2.92;;
62258;SDS011;48241;48.824;10.102;2023-05-19T02:38:17;7.25;;;3.15;;
62258;SDS011;48241;48.824;10.102;2023-05-19T02:40:42;6.88;;;2.97;;
62258;SDS011;48241;48.824;10.102;2023-05-19T02:43:08;8.25;;;3.30;;
62258;SDS011;48241;48.824;10.102;2023-05-19T02:45:34;6.43;;;3.20;;
62258;SDS011;48241;48.824;10.102;2023-05-19T02:48:00;7.75;;;3.03;;
62258;SDS011;48241;48.824;10.102;2023-05-19T02:50:25;8.05;;;3.00;;
62258;SDS011;48241;48.824;10.102;2023-05-19T02:52:51;6.78;;;3.33;;
62258;SDS011;48241;48.824;10.102;2023-05-19T02:55:17;6.63;;;3.00;;
62258;SDS011;48241;48.824;10.102;2023-05-19T02:57:43;8.57;;;3.25;;
62258;SDS011;48241;48.824;10.102;2023-05-19T03:00:09;7.88;;;3.35;;
62258;SDS011;48241;48.824;10.102;2023-05-19T03:02:34;5.32;;;3.33;;
62258;SDS011;48241;48.824;10.102;2023-05-19T03:05:00;7.75;;;3.55;;
62258;SDS011;48241;48.824;10.102;2023-05-19T03:07:27;8.15;;;3.72;;
62258;SDS011;48241;48.824;10.102;2023-05-19T03:09:53;6.80;;;3.60;;
62258;SDS011;48241;48.824;10.102;2023-05-19T03:12:19;8.07;;;3.60;;
62258;SDS011;48241;48.824;10.102;2023-05-19T03:14:45;7.45;;;3.78;;
62258;SDS011;48241;48.824;10.102;2023-05-19T03:17:11;5.80;;;3.30;;
62258;SDS011;48241;48.824;10.102;2023-05-19T03:19:37;7.82;;;3.13;;
62258;SDS011;48241;48.824;10.102;2023-05-19T03:22:02;7.28;;;3.08;;
62258;SDS011;48241;48.824;10.102;2023-05-19T03:24:28;6.43;;;3.30;;
62258;SDS011;48241;48.824;10.102;2023-05-19T03:26:54;6.57;;;3.40;;
62258;SDS011;48241;48.824;10.102;2023-05-19T03:29:20;8.48;;;3.40;;
62258;SDS011;48241;48.824;10.102;2023-05-19T03:31:45;6.25;;;2.97;;
62258;SDS011;48241;48.824;10.102;2023-05-19T03:34:11;7.35;;;3.40;;
62258;SDS011;48241;48.824;10.102;2023-05-19T03:36:36;7.30;;;3.85;;
62258;SDS011;48241;48.824;10.102;2023-05-19T03:39:05;6.90;;;3.35;;
62258;SDS011;48241;48.824;10.102;2023-05-19T03:41:30;7.22;;;3.20;;
62258;SDS011;48241;48.824;10.102;2023-05-19T03:43:56;8.30;;;3.10;;
62258;SDS011;48241;48.824;10.102;2023-05-19T03:46:22;7.93;;;3.30;;
62258;SDS011;48241;48.824;10.102;2023-05-19T03:48:47;5.47;;;3.35;;
62258;SDS011;48241;48.824;10.102;2023-05-19T03:51:13;5.55;;;3.30;;
62258;SDS011;48241;48.824;10.102;2023-05-19T03:53:38;7.75;;;3.38;;
62258;SDS011;48241;48.824;10.102;2023-05-19T03:56:05;7.30;;;3.03;;
62258;SDS011;48241;48.824;10.102;2023-05-19T03:58:31;8.20;;;3.75;;
62258;SDS011;48241;48.824;10.102;2023-05-19T04:00:57;5.40;;;3.40;;
62258;SDS011;48241;48.824;10.102;2023-05-19T04:03:22;5.55;;;3.28;;
62258;SDS011;48241;48.824;10.102;2023-05-19T04:05:50;10.70;;;3.72;;
62258;SDS011;48241;48.824;10.102;2023-05-19T04:08:16;5.82;;;3.10;;
62258;SDS011;48241;48.824;10.102;2023-05-19T04:10:41;8.63;;;3.20;;
62258;SDS011;48241;48.824;10.102;2023-05-19T04:13:07;8.35;;;3.35;;
62258;SDS011;48241;48.824;10.102;2023-05-19T04:15:32;8.30;;;3.40;;
62258;SDS011;48241;48.824;10.102;2023-05-19T04:17:58;8.88;;;3.22;;
62258;SDS011;48241;48.824;10.102;2023-05-19T04:20:24;5.50;;;2.88;;
62258;SDS011;48241;48.824;10.102;2023-05-19T04:22:49;6.82;;;3.38;;
62258;SDS011;48241;48.824;10.102;2023-05-19T04:25:15;7.25;;;3.55;;
62258;SDS011;48241;48.824;10.102;2023-05-19T04:27:40;7.60;;;3.10;;
62258;SDS011;48241;48.824;10.102;2023-05-19T04:30:06;8.20;;;2.95;;
62258;SDS011;48241;48.824;10.102;2023-05-19T04:32:32;5.40;;;2.88;;
62258;SDS011;48241;48.824;10.102;2023-05-19T04:34:58;6.45;;;3.30;;
62258;SDS011;48241;48.824;10.102;2023-05-19T04:37:24;6.45;;;2.90;;
62258;SDS011;48241;48.824;10.102;2023-05-19T04:39:50;8.85;;;3.00;;
62258;SDS011;48241;48.824;10.102;2023-05-19T04:42:16;8.00;;;2.85;;
62258;SDS011;48241;48.824;10.102;2023-05-19T04:44:44;5.82;;;3.17;;
62258;SDS011;48241;48.824;10.102;2023-05-19T04:47:10;7.05;;;3.25;;
62258;SDS011;48241;48.824;10.102;2023-05-19T04:49:37;5.47;;;2.88;;
62258;SDS011;48241;48.824;10.102;2023-05-19T04:52:06;5.38;;;2.67;;
62258;SDS011;48241;48.824;10.102;2023-05-19T04:54:34;6.57;;;2.92;;
62258;SDS011;48241;48.824;10.102;2023-05-19T04:57:00;6.57;;;3.20;;
62258;SDS011;48241;48.824;10.102;2023-05-19T04:59:26;9.32;;;3.03;;
62258;SDS011;48241;48.824;10.102;2023-05-19T05:01:52;8.23;;;3.30;;
62258;SDS011;48241;48.824;10.102;2023-05-19T05:04:18;7.18;;;2.80;;
62258;SDS011;48241;48.824;10.102;2023-05-19T05:06:44;7.90;;;2.97;;
62258;SDS011;48241;48.824;10.102;2023-05-19T05:09:16;6.03;;;3.00;;
62258;SDS011;48241;48.824;10.102;2023-05-19T05:11:42;6.50;;;2.90;;
62258;SDS011;48241;48.824;10.102;2023-05-19T05:14:09;9.38;;;3.20;;
62258;SDS011;48241;48.824;10.102;2023-05-19T05:16:35;5.68;;;3.10;;
62258;SDS011;48241;48.824;10.102;2023-05-19T05:19:01;9.07;;;3.65;;
62258;SDS011;48241;48.824;10.102;2023-05-19T05:21:27;9.68;;;3.70;;
62258;SDS011;48241;48.824;10.102;2023-05-19T05:23:53;7.80;;;3.30;;
62258;SDS011;48241;48.824;10.102;2023-05-19T05:26:19;8.38;;;3.40;;
62258;SDS011;48241;48.824;10.102;2023-05-19T05:28:48;8.57;;;3.72;;
62258;SDS011;48241;48.824;10.102;2023-05-19T05:31:14;5.85;;;3.13;;
62258;SDS011;48241;48.824;10.102;2023-05-19T05:33:40;9.30;;;3.70;;
62258;SDS011;48241;48.824;10.102;2023-05-19T05:36:07;10.25;;;3.60;;
62258;SDS011;48241;48.824;10.102;2023-05-19T05:38:33;9.90;;;3.40;;
62258;SDS011;48241;48.824;10.102;2023-05-19T05:40:58;8.30;;;3.80;;
62258;SDS011;48241;48.824;10.102;2023-05-19T05:43:26;7.22;;;3.78;;
62258;SDS011;48241;48.824;10.102;2023-05-19T05:45:52;7.55;;;3.38;;
62258;SDS011;48241;48.824;10.102;2023-05-19T05:48:18;6.55;;;3.35;;
62258;SDS011;48241;48.824;10.102;2023-05-19T05:50:44;7.32;;;3.47;;
62258;SDS011;48241;48.824;10.102;2023-05-19T05:53:11;8.80;;;3.40;;
62258;SDS011;48241;48.824;10.102;2023-05-19T05:55:43;6.22;;;3.10;;
62258;SDS011;48241;48.824;10.102;2023-05-19T05:58:12;6.35;;;3.17;;
62258;SDS011;48241;48.824;10.102;2023-05-19T06:00:39;6.25;;;3.22;;
62258;SDS011;48241;48.824;10.102;2023-05-19T06:03:07;8.65;;;3.17;;
62258;SDS011;48241;48.824;10.102;2023-05-19T06:05:33;8.95;;;3.35;;
62258;SDS011;48241;48.824;10.102;2023-05-19T06:07:59;8.32;;;3.03;;
62258;SDS011;48241;48.824;10.102;2023-05-19T06:10:26;7.18;;;3.25;;
62258;SDS011;48241;48.824;10.102;2023-05-19T06:12:52;8.27;;;3.22;;
62258;SDS011;48241;48.824;10.102;2023-05-19T06:15:18;7.10;;;3.00;;
62258;SDS011;48241;48.824;10.102;2023-05-19T06:17:44;9.82;;;3.47;;
62258;SDS011;48241;48.824;10.102;2023-05-19T06:20:09;8.10;;;3.33;;
62258;SDS011;48241;48.824;10.102;2023-05-19T06:22:36;7.63;;;3.53;;
62258;SDS011;48241;48.824;10.102;2023-05-19T06:25:02;8.63;;;3.30;;
62258;SDS011;48241;48.824;10.102;2023-05-19T06:27:28;8.52;;;3.15;;
62258;SDS011;48241;48.824;10.102;2023-05-19T06:29:54;8.88;;;3.72;;
62258;SDS011;48241;48.824;10.102;2023-05-19T06:32:19;9.85;;;3.28;;
62258;SDS011;48241;48.824;10.102;2023-05-19T06:34:45;7.07;;;3.20;;
62258;SDS011;48241;48.824;10.102;2023-05-19T06:37:17;7.80;;;3.35;;
62258;SDS011;48241;48.824;10.102;2023-05-19T06:39:47;7.32;;;3.20;;
62258;SDS011;48241;48.824;10.102;2023-05-19T06:42:19;8.30;;;3.33;;
62258;SDS011;48241;48.824;10.102;2023-05-19T06:44:47;8.50;;;3.45;;
62258;SDS011;48241;48.824;10.102;2023-05-19T06:47:13;8.20;;;3.30;;
62258;SDS011;48241;48.824;10.102;2023-05-19T06:49:39;8.25;;;3.53;;
62258;SDS011;48241;48.824;10.102;2023-05-19T06:52:04;9.73;;;3.45;;
62258;SDS011;48241;48.824;10.102;2023-05-19T06:54:30;8.45;;;3.53;;
62258;SDS011;48241;48.824;10.102;2023-05-19T06:56:56;9.25;;;3.67;;
62258;SDS011;48241;48.824;10.102;2023-05-19T06:59:21;10.80;;;3.60;;
62258;SDS011;48241;48.824;10.102;2023-05-19T07:01:47;7.82;;;3.50;;
62258;SDS011;48241;48.824;10.102;2023-05-19T07:04:12;5.82;;;2.97;;
62258;SDS011;48241;48.824;10.102;2023-05-19T07:06:38;8.50;;;3.47;;
62258;SDS011;48241;48.824;10.102;2023-05-19T07:09:03;8.77;;;3.30;;
62258;SDS011;48241;48.824;10.102;2023-05-19T07:11:29;7.22;;;3.03;;
62258;SDS011;48241;48.824;10.102;2023-05-19T07:13:55;9.63;;;3.60;;
62258;SDS011;48241;48.824;10.102;2023-05-19T07:16:20;4.82;;;2.45;;
62258;SDS011;48241;48.824;10.102;2023-05-19T07:18:46;10.15;;;3.50;;
62258;SDS011;48241;48.824;10.102;2023-05-19T07:21:11;8.70;;;3.80;;
62258;SDS011;48241;48.824;10.102;2023-05-19T07:23:37;7.15;;;2.95;;
62258;SDS011;48241;48.824;10.102;2023-05-19T07:26:03;11.02;;;3.38;;
62258;SDS011;48241;48.824;10.102;2023-05-19T07:28:28;6.53;;;3.30;;
62258;SDS011;48241;48.824;10.102;2023-05-19T07:30:54;8.55;;;3.20;;
62258;SDS011;48241;48.824;10.102;2023-05-19T07:33:20;7.13;;;3.40;;
62258;SDS011;48241;48.824;10.102;2023-05-19T07:35:45;6.72;;;3.63;;
62258;SDS011;48241;48.824;10.102;2023-05-19T07:38:11;9.60;;;3.13;;
62258;SDS011;48241;48.824;10.102;2023-05-19T07:40:37;9.70;;;3.63;;
62258;SDS011;48241;48.824;10.102;2023-05-19T07:43:03;7.85;;;3.40;;
62258;SDS011;48241;48.824;10.102;2023-05-19T07:45:28;7.70;;;3.28;;
62258;SDS011;48241;48.824;10.102;2023-05-19T07:47:54;10.32;;;3.92;;
62258;SDS011;48241;48.824;10.102;2023-05-19T07:50:20;6.22;;;3.30;;
62258;SDS011;48241;48.824;10.102;2023-05-19T07:52:46;12.32;;;3.78;;
62258;SDS011;48241;48.824;10.102;2023-05-19T07:55:11;10.50;;;3.72;;
62258;SDS011;48241;48.824;10.102;2023-05-19T07:57:37;9.77;;;3.47;;
62258;SDS011;48241;48.824;10.102;2023-05-19T08:00:03;8.77;;;3.70;;
62258;SDS011;48241;48.824;10.102;2023-05-19T08:02:34;6.32;;;3.45;;
62258;SDS011;48241;48.824;10.102;2023-05-19T08:04:59;4.18;;;2.60;;
62258;SDS011;48241;48.824;10.102;2023-05-19T08:07:25;9.43;;;3.85;;
62258;SDS011;48241;48.824;10.102;2023-05-19T08:09:50;9.90;;;3.63;;
62258;SDS011;48241;48.824;10.102;2023-05-19T08:12:16;7.40;;;3.00;;
62258;SDS011;48241;48.824;10.102;2023-05-19T08:14:42;6.88;;;3.38;;
62258;SDS011;48241;48.824;10.102;2023-05-19T08:17:07;8.90;;;3.65;;
62258;SDS011;48241;48.824;10.102;2023-05-19T08:19:33;6.38;;;3.33;;
62258;SDS011;48241;48.824;10.102;2023-05-19T08:21:58;10.52;;;3.70;;
62258;SDS011;48241;48.824;10.102;2023-05-19T08:24:25;9.15;;;3.45;;
62258;SDS011;48241;48.824;10.102;2023-05-19T08:26:53;6.13;;;3.17;;
62258;SDS011;48241;48.824;10.102;2023-05-19T08:29:19;7.35;;;3.40;;
62258;SDS011;48241;48.824;10.102;2023-05-19T08:31:45;7.88;;;3.42;;
62258;SDS011;48241;48.824;10.102;2023-05-19T08:34:10;5.82;;;3.22;;
62258;SDS011;48241;48.824;10.102;2023-05-19T08:36:36;5.72;;;2.85;;
62258;SDS011;48241;48.824;10.102;2023-05-19T08:39:02;12.02;;;3.40;;
62258;SDS011;48241;48.824;10.102;2023-05-19T08:41:27;7.40;;;3.22;;
62258;SDS011;48241;48.824;10.102;2023-05-19T08:43:53;8.40;;;3.28;;
62258;SDS011;48241;48.824;10.102;2023-05-19T08:46:19;7.50;;;3.40;;
62258;SDS011;48241;48.824;10.102;2023-05-19T08:48:45;7.72;;;3.20;;
62258;SDS011;48241;48.824;10.102;2023-05-19T08:53:47;7.28;;;3.30;;
62258;SDS011;48241;48.824;10.102;2023-05-19T08:56:22;8.30;;;3.65;;
62258;SDS011;48241;48.824;10.102;2023-05-19T08:58:49;7.68;;;3.30;;
62258;SDS011;48241;48.824;10.102;2023-05-19T09:01:16;7.13;;;3.40;;
62258;SDS011;48241;48.824;10.102;2023-05-19T09:03:43;4.45;;;2.45;;
62258;SDS011;48241;48.824;10.102;2023-05-19T09:06:11;6.75;;;3.25;;
62258;SDS011;48241;48.824;10.102;2023-05-19T09:08:37;7.00;;;3.42;;
62258;SDS011;48241;48.824;10.102;2023-05-19T09:11:04;7.50;;;3.53;;
62258;SDS011;48241;48.824;10.102;2023-05-19T09:13:29;8.50;;;3.53;;
62258;SDS011;48241;48.824;10.102;2023-05-19T09:15:56;9.50;;;3.25;;
62258;SDS011;48241;48.824;10.102;2023-05-19T09:18:22;8.18;;;3.35;;
62258;SDS011;48241;48.824;10.102;2023-05-19T09:20:50;6.97;;;3.30;;
62258;SDS011;48241;48.824;10.102;2023-05-19T09:25:52;9.13;;;3.10;;
62258;SDS011;48241;48.824;10.102;2023-05-19T09:28:28;10.50;;;3.03;;
62258;SDS011;48241;48.824;10.102;2023-05-19T09:33:25;9.60;;;3.40;;
62258;SDS011;48241;48.824;10.102;2023-05-19T09:35:52;6.20;;;3.30;;
62258;SDS011;48241;48.824;10.102;2023-05-19T09:38:19;5.82;;;3.40;;
62258;SDS011;48241;48.824;10.102;2023-05-19T09:40:45;5.43;;;3.28;;
62258;SDS011;48241;48.824;10.102;2023-05-19T09:43:13;5.50;;;2.83;;
62258;SDS011;48241;48.824;10.102;2023-05-19T09:45:40;6.82;;;3.30;;
62258;SDS011;48241;48.824;10.102;2023-05-19T09:48:06;10.38;;;3.38;;
62258;SDS011;48241;48.824;10.102;2023-05-19T09:50:32;6.60;;;3.20;;
62258;SDS011;48241;48.824;10.102;2023-05-19T09:52:57;8.25;;;3.42;;
62258;SDS011;48241;48.824;10.102;2023-05-19T09:55:24;5.80;;;3.10;;
62258;SDS011;48241;48.824;10.102;2023-05-19T09:57:53;5.18;;;3.05;;
62258;SDS011;48241;48.824;10.102;2023-05-19T10:00:25;6.53;;;3.42;;
62258;SDS011;48241;48.824;10.102;2023-05-19T10:02:51;6.53;;;3.17;;
62258;SDS011;48241;48.824;10.102;2023-05-19T10:05:17;4.97;;;3.40;;
62258;SDS011;48241;48.824;10.102;2023-05-19T10:07:44;5.47;;;2.65;;
62258;SDS011;48241;48.824;10.102;2023-05-19T10:10:13;7.65;;;3.00;;
62258;SDS011;48241;48.824;10.102;2023-05-19T10:12:39;6.97;;;2.70;;
62258;SDS011;48241;48.824;10.102;2023-05-19T10:15:09;5.13;;;2.92;;
62258;SDS011;48241;48.824;10.102;2023-05-19T10:17:44;5.28;;;2.85;;
62258;SDS011;48241;48.824;10.102;2023-05-19T10:20:11;6.03;;;3.10;;
62258;SDS011;48241;48.824;10.102;2023-05-19T10:22:41;4.43;;;2.88;;
62258;SDS011;48241;48.824;10.102;2023-05-19T10:25:09;9.55;;;3.42;;
62258;SDS011;48241;48.824;10.102;2023-05-19T10:27:41;6.43;;;3.47;;
62258;SDS011;48241;48.824;10.102;2023-05-19T10:30:12;6.85;;;3.55;;
62258;SDS011;48241;48.824;10.102;2023-05-19T10:32:41;7.87;;;3.13;;
62258;SDS011;48241;48.824;10.102;2023-05-19T10:38:05;5.95;;;3.10;;
62258;SDS011;48241;48.824;10.102;2023-05-19T10:40:52;7.82;;;3.10;;
62258;SDS011;48241;48.824;10.102;2023-05-19T10:45:52;7.85;;;3.50;;
62258;SDS011;48241;48.824;10.102;2023-05-19T10:48:19;5.45;;;3.20;;
62258;SDS011;48241;48.824;10.102;2023-05-19T10:50:48;7.72;;;3.65;;
62258;SDS011;48241;48.824;10.102;2023-05-19T10:53:18;6.07;;;3.40;;
62258;SDS011;48241;48.824;10.102;2023-05-19T11:01:06;5.75;;;3.83;;
62258;SDS011;48241;48.824;10.102;2023-05-19T11:03:41;6.28;;;4.03;;
62258;SDS011;48241;48.824;10.102;2023-05-19T11:06:28;8.35;;;3.88;;
62258;SDS011;48241;48.824;10.102;2023-05-19T11:09:11;5.80;;;3.88;;
62258;SDS011;48241;48.824;10.102;2023-05-19T11:11:46;7.25;;;3.70;;
62258;SDS011;48241;48.824;10.102;2023-05-19T11:14:17;8.77;;;4.00;;
62258;SDS011;48241;48.824;10.102;2023-05-19T11:16:47;8.50;;;3.75;;
62258;SDS011;48241;48.824;10.102;2023-05-19T11:21:52;7.88;;;3.85;;
62258;SDS011;48241;48.824;10.102;2023-05-19T11:29:46;7.90;;;3.88;;
62258;SDS011;48241;48.824;10.102;2023-05-19T11:32:13;9.68;;;4.10;;
62258;SDS011;48241;48.824;10.102;2023-05-19T11:34:39;8.07;;;3.95;;
62258;SDS011;48241;48.824;10.102;2023-05-19T11:37:06;5.90;;;3.65;;
62258;SDS011;48241;48.824;10.102;2023-05-19T11:39:32;8.07;;;3.70;;
62258;SDS011;48241;48.824;10.102;2023-05-19T11:41:58;7.20;;;3.80;;
62258;SDS011;48241;48.824;10.102;2023-05-19T11:44:24;8.50;;;3.70;;
62258;SDS011;48241;48.824;10.102;2023-05-19T11:46:49;6.05;;;3.70;;
62258;SDS011;48241;48.824;10.102;2023-05-19T11:49:15;6.28;;;3.40;;
62258;SDS011;48241;48.824;10.102;2023-05-19T11:51:44;7.32;;;4.07;;
62258;SDS011;48241;48.824;10.102;2023-05-19T11:54:10;7.07;;;3.80;;
62258;SDS011;48241;48.824;10.102;2023-05-19T11:56:40;5.63;;;3.40;;
62258;SDS011;48241;48.824;10.102;2023-05-19T11:59:06;6.75;;;3.53;;
62258;SDS011;48241;48.824;10.102;2023-05-19T12:01:33;7.47;;;3.42;;
62258;SDS011;48241;48.824;10.102;2023-05-19T12:03:59;8.32;;;3.75;;
62258;SDS011;48241;48.824;10.102;2023-05-19T12:06:26;7.65;;;3.63;;
62258;SDS011;48241;48.824;10.102;2023-05-19T12:08:55;5.63;;;3.60;;
62258;SDS011;48241;48.824;10.102;2023-05-19T12:11:22;7.82;;;3.75;;
62258;SDS011;48241;48.824;10.102;2023-05-19T12:13:48;6.88;;;3.83;;
62258;SDS011;48241;48.824;10.102;2023-05-19T12:16:21;6.85;;;3.90;;
62258;SDS011;48241;48.824;10.102;2023-05-19T12:18:47;6.53;;;3.58;;
62258;SDS011;48241;48.824;10.102;2023-05-19T12:21:12;7.30;;;3.55;;
62258;SDS011;48241;48.824;10.102;2023-05-19T12:23:38;8.38;;;3.67;;
62258;SDS011;48241;48.824;10.102;2023-05-19T12:26:05;30.42;;;8.63;;
62258;SDS011;48241;48.824;10.102;2023-05-19T12:28:32;21.13;;;7.15;;
62258;SDS011;48241;48.824;10.102;2023-05-19T12:30:57;26.13;;;6.95;;
62258;SDS011;48241;48.824;10.102;2023-05-19T12:33:23;31.13;;;8.43;;
62258;SDS011;48241;48.824;10.102;2023-05-19T12:35:49;12.70;;;4.38;;
62258;SDS011;48241;48.824;10.102;2023-05-19T12:38:15;7.72;;;3.30;;
62258;SDS011;48241;48.824;10.102;2023-05-19T12:40:43;6.32;;;3.63;;
62258;SDS011;48241;48.824;10.102;2023-05-19T12:43:21;7.15;;;3.97;;
62258;SDS011;48241;48.824;10.102;2023-05-19T12:45:47;7.10;;;3.55;;
62258;SDS011;48241;48.824;10.102;2023-05-19T12:48:13;7.78;;;3.88;;
62258;SDS011;48241;48.824;10.102;2023-05-19T12:50:39;8.77;;;3.55;;
62258;SDS011;48241;48.824;10.102;2023-05-19T12:53:10;5.60;;;3.58;;
62258;SDS011;48241;48.824;10.102;2023-05-19T12:55:40;6.05;;;3.35;;
62258;SDS011;48241;48.824;10.102;2023-05-19T12:58:06;7.72;;;3.97;;
62258;SDS011;48241;48.824;10.102;2023-05-19T13:00:32;11.10;;;4.00;;
62258;SDS011;48241;48.824;10.102;2023-05-19T13:03:04;7.75;;;3.70;;
62258;SDS011;48241;48.824;10.102;2023-05-19T13:05:32;7.85;;;3.67;;
62258;SDS011;48241;48.824;10.102;2023-05-19T13:08:11;7.97;;;3.75;;
62258;SDS011;48241;48.824;10.102;2023-05-19T13:10:38;5.90;;;3.55;;
62258;SDS011;48241;48.824;10.102;2023-05-19T13:13:06;6.50;;;3.60;;
62258;SDS011;48241;48.824;10.102;2023-05-19T13:15:33;5.82;;;3.33;;
62258;SDS011;48241;48.824;10.102;2023-05-19T13:18:02;7.38;;;3.63;;
62258;SDS011;48241;48.824;10.102;2023-05-19T13:20:30;7.78;;;3.90;;
62258;SDS011;48241;48.824;10.102;2023-05-19T13:22:57;8.15;;;3.47;;
62258;SDS011;48241;48.824;10.102;2023-05-19T13:25:23;5.60;;;3.38;;
62258;SDS011;48241;48.824;10.102;2023-05-19T13:27:49;7.25;;;3.70;;
62258;SDS011;48241;48.824;10.102;2023-05-19T13:30:15;5.55;;;3.13;;
62258;SDS011;48241;48.824;10.102;2023-05-19T13:32:41;6.22;;;3.20;;
62258;SDS011;48241;48.824;10.102;2023-05-19T13:35:07;8.00;;;3.45;;
62258;SDS011;48241;48.824;10.102;2023-05-19T13:37:33;6.78;;;3.60;;
62258;SDS011;48241;48.824;10.102;2023-05-19T13:39:59;8.20;;;3.70;;
62258;SDS011;48241;48.824;10.102;2023-05-19T13:42:25;6.28;;;3.58;;
62258;SDS011;48241;48.824;10.102;2023-05-19T13:44:55;11.20;;;3.28;;
62258;SDS011;48241;48.824;10.102;2023-05-19T13:47:23;6.55;;;3.15;;
62258;SDS011;48241;48.824;10.102;2023-05-19T13:49:50;6.40;;;3.28;;
62258;SDS011;48241;48.824;10.102;2023-05-19T13:52:16;7.82;;;3.60;;
62258;SDS011;48241;48.824;10.102;2023-05-19T13:54:42;8.18;;;3.22;;
62258;SDS011;48241;48.824;10.102;2023-05-19T13:57:08;5.22;;;3.05;;
62258;SDS011;48241;48.824;10.102;2023-05-19T13:59:33;7.68;;;3.00;;
62258;SDS011;48241;48.824;10.102;2023-05-19T14:02:00;7.00;;;3.00;;
62258;SDS011;48241;48.824;10.102;2023-05-19T14:04:26;6.22;;;3.13;;
62258;SDS011;48241;48.824;10.102;2023-05-19T14:06:53;6.70;;;2.53;;
62258;SDS011;48241;48.824;10.102;2023-05-19T14:09:18;9.55;;;4.70;;
62258;SDS011;48241;48.824;10.102;2023-05-19T14:11:45;4.25;;;2.90;;
62258;SDS011;48241;48.824;10.102;2023-05-19T14:14:11;5.90;;;3.17;;
62258;SDS011;48241;48.824;10.102;2023-05-19T14:16:37;7.07;;;2.85;;
62258;SDS011;48241;48.824;10.102;2023-05-19T14:19:03;4.95;;;2.40;;
62258;SDS011;48241;48.824;10.102;2023-05-19T14:21:29;3.30;;;2.40;;
62258;SDS011;48241;48.824;10.102;2023-05-19T14:23:55;3.50;;;2.20;;
62258;SDS011;48241;48.824;10.102;2023-05-19T14:26:20;4.55;;;2.15;;
62258;SDS011;48241;48.824;10.102;2023-05-19T14:28:46;3.90;;;2.30;;
62258;SDS011;48241;48.824;10.102;2023-05-19T14:31:11;5.47;;;2.60;;
62258;SDS011;48241;48.824;10.102;2023-05-19T14:33:38;3.88;;;2.58;;
62258;SDS011;48241;48.824;10.102;2023-05-19T14:36:04;5.15;;;2.72;;
62258;SDS011;48241;48.824;10.102;2023-05-19T14:38:31;4.95;;;2.88;;
62258;SDS011;48241;48.824;10.102;2023-05-19T14:40:56;5.38;;;2.70;;
62258;SDS011;48241;48.824;10.102;2023-05-19T14:43:22;4.13;;;2.60;;
62258;SDS011;48241;48.824;10.102;2023-05-19T14:45:47;5.30;;;2.40;;
62258;SDS011;48241;48.824;10.102;2023-05-19T14:48:13;3.15;;;2.50;;
62258;SDS011;48241;48.824;10.102;2023-05-19T14:50:39;3.72;;;2.35;;
62258;SDS011;48241;48.824;10.102;2023-05-19T14:53:05;3.85;;;2.47;;
62258;SDS011;48241;48.824;10.102;2023-05-19T14:55:30;4.18;;;2.60;;
62258;SDS011;48241;48.824;10.102;2023-05-19T14:57:56;5.80;;;2.67;;
62258;SDS011;48241;48.824;10.102;2023-05-19T15:00:23;4.78;;;2.35;;
62258;SDS011;48241;48.824;10.102;2023-05-19T15:02:51;4.03;;;2.60;;
62258;SDS011;48241;48.824;10.102;2023-05-19T15:05:17;3.90;;;2.35;;
62258;SDS011;48241;48.824;10.102;2023-05-19T15:07:43;2.53;;;2.20;;
62258;SDS011;48241;48.824;10.102;2023-05-19T15:10:09;5.80;;;2.30;;
62258;SDS011;48241;48.824;10.102;2023-05-19T15:12:34;5.78;;;2.65;;